createdAt,value
2022-08-12T00:00:19.814Z,1.70
2022-08-12T00:03:26.245Z,1.92
2022-08-12T00:06:32.519Z,1.98
2022-08-12T00:09:37.481Z,2.03
2022-08-12T00:12:42.882Z,1.73
2022-08-12T00:15:49.283Z,2.05
2022-08-12T00:18:58.039Z,1.75
2022-08-12T00:22:03.797Z,1.80
2022-08-12T00:25:08.693Z,1.65
2022-08-12T00:28:15.276Z,1.65
2022-08-12T00:31:21.087Z,2.00
2022-08-12T00:34:32.373Z,1.75
2022-08-12T00:37:37.929Z,1.83
2022-08-12T00:40:45.975Z,1.67
2022-08-12T00:43:36.216Z,2.00
2022-08-12T00:46:32.444Z,1.95
2022-08-12T00:49:23.324Z,2.13
2022-08-12T00:52:11.311Z,1.80
2022-08-12T00:55:00.958Z,1.63
2022-08-12T00:57:50.690Z,1.67
2022-08-12T01:00:42.605Z,1.63
2022-08-12T01:03:51.722Z,1.48
2022-08-12T01:07:00.995Z,1.80
2022-08-12T01:10:07.204Z,1.90
2022-08-12T01:12:55.828Z,1.88
2022-08-12T01:16:04.834Z,1.88
2022-08-12T01:18:55.392Z,1.85
2022-08-12T01:22:03.205Z,1.80
2022-08-12T01:24:59.193Z,1.65
2022-08-12T01:27:51.108Z,1.95
2022-08-12T01:30:42.186Z,2.17
2022-08-12T01:33:33.554Z,1.90
2022-08-12T01:36:27.029Z,1.85
2022-08-12T01:39:17.767Z,1.92
2022-08-12T01:42:10.512Z,2.00
2022-08-12T01:44:59.989Z,2.20
2022-08-12T01:48:06.367Z,2.10
2022-08-12T01:51:05.298Z,1.98
2022-08-12T01:54:04.575Z,1.83
2022-08-12T01:56:57.195Z,2.08
2022-08-12T01:59:56.301Z,2.00
2022-08-12T02:02:49.079Z,2.20
2022-08-12T02:06:06.679Z,2.28
2022-08-12T02:09:17.831Z,2.00
2022-08-12T02:12:13.450Z,1.90
2022-08-12T02:15:13.162Z,2.05
2022-08-12T02:18:10.659Z,2.13
2022-08-12T02:21:05.504Z,2.47
2022-08-12T02:23:53.979Z,1.92
2022-08-12T02:26:44.301Z,1.75
2022-08-12T02:29:32.739Z,2.00
2022-08-12T02:32:23.504Z,2.40
2022-08-12T02:35:15.000Z,2.38
2022-08-12T02:38:05.351Z,2.25
2022-08-12T02:40:55.735Z,2.33
2022-08-12T02:43:51.406Z,2.47
2022-08-12T02:46:40.386Z,2.15
2022-08-12T02:49:32.751Z,2.55
2022-08-12T02:52:20.925Z,2.03
2022-08-12T02:55:28.926Z,2.60
2022-08-12T02:58:32.854Z,2.35
2022-08-12T03:01:32.841Z,2.50
2022-08-12T03:04:27.333Z,2.22
2022-08-12T03:07:22.722Z,2.55
2022-08-12T03:10:17.968Z,2.53
2022-08-12T03:13:11.072Z,2.50
2022-08-12T03:15:59.472Z,2.30
2022-08-12T03:18:47.985Z,2.67
2022-08-12T03:21:52.843Z,2.35
2022-08-12T03:24:47.396Z,2.40
2022-08-12T03:27:36.328Z,2.35
2022-08-12T03:30:25.923Z,2.30
2022-08-12T03:33:16.164Z,2.05
2022-08-12T03:36:07.084Z,2.05
2022-08-12T03:39:23.676Z,2.05
2022-08-12T03:42:36.702Z,2.00
2022-08-12T03:45:51.529Z,2.17
2022-08-12T03:48:59.912Z,2.40
2022-08-12T03:52:05.736Z,2.65
2022-08-12T03:55:10.471Z,2.20
2022-08-12T03:58:17.635Z,2.53
2022-08-12T04:01:06.937Z,2.90
2022-08-12T04:03:55.885Z,2.70
2022-08-12T04:06:46.016Z,2.50
2022-08-12T04:09:33.951Z,2.45
2022-08-12T04:12:39.411Z,2.72
2022-08-12T04:15:30.688Z,2.80
2022-08-12T04:18:18.315Z,2.80
2022-08-12T04:21:25.851Z,2.53
2022-08-12T04:24:14.503Z,2.78
2022-08-12T04:27:02.551Z,2.67
2022-08-12T04:30:30.290Z,2.65
2022-08-12T04:33:00.755Z,2.58
2022-08-12T04:35:49.339Z,2.55
2022-08-12T04:38:39.106Z,2.63
2022-08-12T04:41:27.690Z,2.90
2022-08-12T04:44:15.145Z,2.83
2022-08-12T04:47:02.938Z,2.50
2022-08-12T04:49:52.303Z,2.80
2022-08-12T04:52:40.266Z,2.53
2022-08-12T04:55:28.490Z,2.33
2022-08-12T04:58:16.308Z,2.60
2022-08-12T05:01:17.517Z,3.00
2022-08-12T05:04:06.777Z,2.78
2022-08-12T05:06:55.920Z,2.63
2022-08-12T05:10:01.732Z,2.58
2022-08-12T05:12:55.184Z,2.15
2022-08-12T05:16:02.624Z,2.58
2022-08-12T05:18:52.771Z,2.65
2022-08-12T05:21:41.311Z,2.63
2022-08-12T05:24:30.997Z,2.10
2022-08-12T05:27:18.857Z,2.67
2022-08-12T05:30:09.393Z,2.53
2022-08-12T05:32:59.053Z,2.67
2022-08-12T05:35:50.218Z,2.60
2022-08-12T05:38:58.269Z,2.95
2022-08-12T05:41:47.169Z,2.80
2022-08-12T05:44:35.564Z,3.00
2022-08-12T05:47:23.228Z,2.97
2022-08-12T05:50:26.267Z,2.80
2022-08-12T05:53:13.934Z,2.67
2022-08-12T05:56:01.993Z,2.42
2022-08-12T05:58:52.464Z,2.80
2022-08-12T06:02:09.556Z,2.00
2022-08-12T06:04:49.965Z,2.28
2022-08-12T06:08:01.596Z,2.85
2022-08-12T06:10:51.309Z,2.60
2022-08-12T06:13:54.241Z,2.47
2022-08-12T06:16:46.431Z,2.72
2022-08-12T06:20:27.734Z,2.75
2022-08-12T06:22:42.307Z,2.63
2022-08-12T06:25:30.565Z,2.85
2022-08-12T06:28:21.273Z,3.28
2022-08-12T06:31:26.632Z,3.10
2022-08-12T06:35:26.534Z,2.83
2022-08-12T06:37:25.438Z,2.50
2022-08-12T06:40:15.006Z,2.53
2022-08-12T06:43:01.835Z,2.50
2022-08-12T06:45:49.660Z,2.88
2022-08-12T06:48:37.928Z,2.65
2022-08-12T06:51:28.369Z,3.00
2022-08-12T06:54:31.296Z,2.65
2022-08-12T06:58:05.418Z,2.47
2022-08-12T07:00:32.563Z,2.40
2022-08-12T07:03:23.578Z,2.30
2022-08-12T07:06:11.721Z,2.17
2022-08-12T07:09:01.159Z,2.17
2022-08-12T07:11:50.978Z,2.20
2022-08-12T07:14:41.037Z,2.03
2022-08-12T07:17:37.483Z,2.15
2022-08-12T07:20:51.053Z,2.10
2022-08-12T07:23:38.981Z,2.00
2022-08-12T07:26:29.476Z,1.75
2022-08-12T07:29:17.328Z,2.00
2022-08-12T07:32:05.524Z,1.75
2022-08-12T07:34:54.762Z,1.77
2022-08-12T07:37:43.074Z,1.70
2022-08-12T07:40:31.276Z,1.88
2022-08-12T07:43:20.340Z,1.85
2022-08-12T07:46:10.788Z,1.63
2022-08-12T07:49:01.196Z,1.63
2022-08-12T07:51:48.811Z,1.80
2022-08-12T07:54:37.339Z,1.80
2022-08-12T07:57:24.939Z,1.88
2022-08-12T08:00:16.176Z,1.83
2022-08-12T08:03:04.655Z,1.75
2022-08-12T08:05:53.711Z,1.58
2022-08-12T08:08:41.742Z,1.92
2022-08-12T08:11:47.128Z,1.55
2022-08-12T08:14:37.055Z,1.60
2022-08-12T08:17:27.072Z,1.70
2022-08-12T08:20:15.129Z,2.03
2022-08-12T08:23:06.232Z,1.60
2022-08-12T08:25:54.295Z,1.40
2022-08-12T08:28:42.225Z,1.58
2022-08-12T08:31:30.108Z,1.55
2022-08-12T08:34:33.514Z,1.88
2022-08-12T08:37:32.843Z,1.92
2022-08-12T08:40:39.202Z,1.55
2022-08-12T08:43:27.111Z,1.45
2022-08-12T08:46:33.088Z,1.60
2022-08-12T08:49:23.215Z,1.80
2022-08-12T08:52:11.965Z,1.52
2022-08-12T08:54:59.968Z,1.50
2022-08-12T08:57:50.630Z,1.30
2022-08-12T09:00:39.836Z,1.58
2022-08-12T09:06:37.822Z,1.70
2022-08-12T09:12:55.095Z,1.85
2022-08-12T09:15:43.795Z,2.08
2022-08-12T09:18:44.350Z,1.80
2022-08-12T09:24:41.426Z,2.00
2022-08-12T09:27:58.006Z,1.60
2022-08-12T09:30:41.757Z,2.17
2022-08-12T09:34:28.313Z,1.85
2022-08-12T09:36:57.921Z,1.90
2022-08-12T09:40:03.474Z,1.88
2022-08-12T09:43:19.493Z,1.98
2022-08-12T09:46:20.936Z,1.95
2022-08-12T09:49:16.385Z,2.10
2022-08-12T09:52:04.757Z,1.92
2022-08-12T09:54:59.866Z,2.22
2022-08-12T09:58:45.290Z,2.35
2022-08-12T10:01:06.558Z,1.80
2022-08-12T10:04:04.750Z,2.28
2022-08-12T10:06:57.551Z,2.25
2022-08-12T10:09:58.807Z,2.03
2022-08-12T10:13:07.843Z,2.10
2022-08-12T10:16:01.830Z,2.17
2022-08-12T10:18:54.803Z,1.77
2022-08-12T10:21:44.161Z,2.08
2022-08-12T10:24:32.120Z,2.20
2022-08-12T10:28:04.874Z,1.92
2022-08-12T10:30:58.428Z,2.17
2022-08-12T10:34:05.163Z,1.80
2022-08-12T10:37:00.402Z,2.28
2022-08-12T10:40:11.395Z,2.53
2022-08-12T10:43:20.321Z,1.92
2022-08-12T10:46:13.824Z,1.90
2022-08-12T10:49:06.310Z,1.98
2022-08-12T10:52:34.083Z,2.38
2022-08-12T10:55:19.337Z,1.90
2022-08-12T10:58:15.324Z,2.20
2022-08-12T11:01:25.768Z,1.90
2022-08-12T11:04:39.555Z,2.30
2022-08-12T11:08:37.230Z,1.95
2022-08-12T11:10:43.388Z,1.98
2022-08-12T11:13:46.731Z,1.88
2022-08-12T11:16:38.433Z,1.88
2022-08-12T11:19:27.085Z,2.38
2022-08-12T11:22:18.382Z,1.77
2022-08-12T11:25:12.213Z,1.92
2022-08-12T11:28:00.064Z,1.92
2022-08-12T11:30:47.531Z,2.20
2022-08-12T11:34:06.678Z,2.10
2022-08-12T11:36:53.345Z,2.03
2022-08-12T11:42:50.789Z,2.35
2022-08-12T11:45:39.657Z,2.40
2022-08-12T11:48:51.577Z,2.40
2022-08-12T11:51:40.111Z,2.20
2022-08-12T11:54:29.763Z,2.00
2022-08-12T11:58:14.586Z,2.20
2022-08-12T12:03:45.692Z,2.10
2022-08-12T12:06:35.930Z,1.80
2022-08-12T12:09:24.692Z,2.10
2022-08-12T12:12:12.331Z,1.90
2022-08-12T12:15:04.890Z,1.90
2022-08-12T12:17:55.707Z,2.10
2022-08-12T12:20:43.734Z,2.20
2022-08-12T12:23:36.308Z,1.90
2022-08-12T12:26:35.309Z,2.10
2022-08-12T12:30:18.971Z,1.92
2022-08-12T12:32:31.571Z,2.20
2022-08-12T12:36:18.558Z,1.98
2022-08-12T12:38:27.272Z,2.00
2022-08-12T12:41:17.206Z,1.90
2022-08-12T12:44:05.333Z,1.80
2022-08-12T12:46:54.873Z,2.17
2022-08-12T12:49:42.560Z,1.70
2022-08-12T12:52:30.175Z,2.20
2022-08-12T12:55:18.085Z,2.08
2022-08-12T12:58:11.315Z,1.90
2022-08-12T13:01:04.516Z,1.75
2022-08-12T13:04:12.341Z,2.00
2022-08-12T13:07:02.249Z,2.20
2022-08-12T13:09:53.544Z,1.83
2022-08-12T13:12:51.149Z,2.13
2022-08-12T13:15:45.351Z,2.15
2022-08-12T13:18:37.554Z,1.85
2022-08-12T13:21:33.681Z,2.15
2022-08-12T13:24:24.820Z,1.75
2022-08-12T13:27:20.812Z,2.47
2022-08-12T13:30:12.515Z,2.15
2022-08-12T13:33:01.832Z,2.60
2022-08-12T13:36:06.245Z,2.30
2022-08-12T13:38:55.536Z,1.88
2022-08-12T13:41:44.612Z,2.30
2022-08-12T13:44:32.421Z,2.40
2022-08-12T13:47:22.083Z,2.10
2022-08-12T13:50:11.679Z,2.20
2022-08-12T13:53:00.370Z,2.42
2022-08-12T13:56:01.635Z,2.00
2022-08-12T13:58:52.575Z,2.30
2022-08-12T14:01:41.337Z,2.40
2022-08-12T14:04:29.077Z,2.13
2022-08-12T14:07:19.682Z,2.15
2022-08-12T14:10:28.297Z,2.25
2022-08-12T14:14:05.836Z,2.38
2022-08-12T14:16:38.198Z,2.40
2022-08-12T14:19:35.798Z,2.60
2022-08-12T14:22:28.406Z,2.70
2022-08-12T14:25:18.317Z,2.40
2022-08-12T14:28:11.363Z,2.50
2022-08-12T14:31:01.591Z,2.53
2022-08-12T14:33:52.698Z,2.63
2022-08-12T14:36:42.370Z,3.00
2022-08-12T14:39:31.926Z,2.60
2022-08-12T14:42:19.847Z,2.70
2022-08-12T14:45:09.220Z,2.40
2022-08-12T14:48:00.630Z,2.30
2022-08-12T14:52:10.825Z,2.22
2022-08-12T14:56:09.019Z,2.30
2022-08-12T14:57:20.394Z,2.50
2022-08-12T15:00:30.747Z,2.60
2022-08-12T15:03:18.632Z,2.33
2022-08-12T15:06:44.278Z,2.35
2022-08-12T15:09:16.851Z,2.13
2022-08-12T15:12:05.491Z,2.60
2022-08-12T15:15:04.318Z,2.50
2022-08-12T15:18:02.197Z,2.80
2022-08-12T15:20:51.593Z,2.40
2022-08-12T15:23:55.107Z,2.70
2022-08-12T15:26:43.813Z,2.80
2022-08-12T15:29:34.536Z,2.60
2022-08-12T15:32:32.328Z,2.60
2022-08-12T15:35:20.666Z,2.67
2022-08-12T15:38:12.824Z,2.90
2022-08-12T15:41:03.049Z,2.85
2022-08-12T15:44:15.858Z,2.78
2022-08-12T15:46:58.291Z,2.90
2022-08-12T15:49:59.688Z,2.53
2022-08-12T15:52:49.434Z,2.55
2022-08-12T15:55:37.259Z,2.78
2022-08-12T15:58:34.441Z,2.70
2022-08-12T16:01:22.380Z,2.80
2022-08-12T16:04:13.715Z,3.20
2022-08-12T16:07:09.152Z,3.00
2022-08-12T16:10:05.954Z,2.75
2022-08-12T16:12:57.094Z,3.10
2022-08-12T16:15:51.088Z,3.10
2022-08-12T16:18:52.113Z,3.08
2022-08-12T16:21:52.747Z,3.00
2022-08-12T16:24:47.879Z,3.00
2022-08-12T16:27:41.896Z,2.70
2022-08-12T16:30:35.168Z,2.75
2022-08-12T16:33:36.148Z,3.00
2022-08-12T16:36:46.007Z,2.65
2022-08-12T16:40:00.978Z,2.80
2022-08-12T16:43:01.747Z,3.30
2022-08-12T16:46:05.400Z,2.80
2022-08-12T16:49:08.582Z,3.20
2022-08-12T16:52:01.012Z,3.35
2022-08-12T16:54:48.920Z,3.33
2022-08-12T16:57:36.979Z,3.00
2022-08-12T17:00:25.852Z,2.92
2022-08-12T17:03:13.711Z,3.20
2022-08-12T17:06:22.000Z,3.10
2022-08-12T17:09:17.259Z,3.17
2022-08-12T17:12:08.214Z,3.10
2022-08-12T17:14:55.739Z,3.30
2022-08-12T17:17:46.733Z,2.95
2022-08-12T17:20:39.636Z,3.50
2022-08-12T17:23:48.448Z,3.22
2022-08-12T17:26:44.964Z,3.35
2022-08-12T17:30:01.894Z,3.28
2022-08-12T17:32:53.250Z,3.80
2022-08-12T17:35:43.354Z,3.35
2022-08-12T17:38:38.188Z,3.78
2022-08-12T17:41:56.574Z,3.58
2022-08-12T17:44:35.134Z,3.67
2022-08-12T17:48:01.234Z,3.17
2022-08-12T17:50:33.751Z,4.00
2022-08-12T17:53:21.886Z,3.83
2022-08-12T17:56:09.984Z,4.00
2022-08-12T17:58:59.130Z,3.92
2022-08-12T18:01:48.586Z,3.80
2022-08-12T18:04:37.717Z,3.75
2022-08-12T18:07:47.666Z,3.70
2022-08-12T18:10:55.441Z,4.50
2022-08-12T18:13:43.675Z,4.15
2022-08-12T18:16:32.166Z,3.97
2022-08-12T18:19:20.766Z,4.53
2022-08-12T18:22:08.524Z,4.45
2022-08-12T18:25:04.020Z,5.00
2022-08-12T18:28:16.519Z,4.63
2022-08-12T18:31:03.858Z,4.90
2022-08-12T18:33:52.447Z,4.60
2022-08-12T18:36:41.150Z,5.68
2022-08-12T18:39:51.935Z,5.07
2022-08-12T18:42:54.231Z,4.97
2022-08-12T18:45:47.293Z,6.72
2022-08-12T18:48:45.668Z,6.60
2022-08-12T18:51:48.945Z,7.15
2022-08-12T18:54:53.916Z,7.53
2022-08-12T18:58:08.431Z,7.03
2022-08-12T19:00:55.763Z,6.70
2022-08-12T19:03:43.768Z,5.50
2022-08-12T19:06:38.269Z,6.45
2022-08-12T19:09:39.146Z,6.10
2022-08-12T19:13:03.793Z,5.68
2022-08-12T19:15:57.563Z,5.45
2022-08-12T19:18:46.337Z,5.45
2022-08-12T19:21:34.581Z,5.45
2022-08-12T19:24:42.743Z,5.68
2022-08-12T19:27:32.656Z,5.47
2022-08-12T19:30:45.359Z,5.60
2022-08-12T19:33:33.568Z,5.63
2022-08-12T19:36:26.565Z,6.47
2022-08-12T19:39:22.945Z,5.97
2022-08-12T19:42:14.483Z,6.05
2022-08-12T19:45:05.791Z,6.60
2022-08-12T19:48:04.325Z,6.40
2022-08-12T19:50:55.628Z,6.20
2022-08-12T19:53:57.711Z,6.07
2022-08-12T19:56:49.756Z,5.75
2022-08-12T19:59:42.940Z,6.13
2022-08-12T20:02:48.409Z,5.70
2022-08-12T20:06:06.528Z,6.05
2022-08-12T20:08:48.704Z,6.78
2022-08-12T20:12:12.014Z,5.75
2022-08-12T20:14:48.219Z,6.53
2022-08-12T20:17:50.959Z,6.82
2022-08-12T20:20:40.810Z,6.38
2022-08-12T20:23:50.312Z,6.53
2022-08-12T20:26:41.189Z,6.20
2022-08-12T20:29:35.517Z,5.93
2022-08-12T20:32:47.462Z,7.00
2022-08-12T20:36:06.850Z,7.13
2022-08-12T20:38:45.905Z,6.70
2022-08-12T20:41:34.731Z,6.28
2022-08-12T20:44:22.899Z,6.95
2022-08-12T20:47:19.730Z,7.07
2022-08-12T20:50:10.030Z,7.60
2022-08-12T20:52:57.449Z,6.93
2022-08-12T20:55:56.868Z,7.35
2022-08-12T20:58:45.418Z,6.78
2022-08-12T21:01:47.040Z,6.88
2022-08-12T21:04:53.504Z,7.22
2022-08-12T21:07:51.812Z,7.32
2022-08-12T21:10:39.972Z,7.38
2022-08-12T21:13:29.561Z,8.55
2022-08-12T21:16:35.582Z,7.00
2022-08-12T21:19:24.697Z,7.80
2022-08-12T21:22:33.357Z,7.47
2022-08-12T21:25:20.884Z,8.38
2022-08-12T21:28:10.455Z,7.72
2022-08-12T21:32:34.324Z,7.95
2022-08-12T21:34:10.851Z,8.48
2022-08-12T21:37:26.450Z,7.70
2022-08-12T21:40:13.631Z,7.95
2022-08-12T21:43:03.636Z,7.93
2022-08-12T21:46:00.738Z,8.68
2022-08-12T21:48:56.737Z,8.48
2022-08-12T21:51:49.670Z,8.02
2022-08-12T21:54:40.684Z,8.73
2022-08-12T21:57:30.402Z,8.05
2022-08-12T22:00:32.018Z,8.77
2022-08-12T22:04:02.818Z,9.10
2022-08-12T22:06:53.565Z,8.23
2022-08-12T22:09:43.252Z,8.63
2022-08-12T22:12:34.769Z,7.88
2022-08-12T22:15:26.186Z,8.02
2022-08-12T22:18:13.751Z,8.63
2022-08-12T22:21:03.801Z,8.75
2022-08-12T22:24:04.925Z,8.63
2022-08-12T22:26:53.375Z,9.57
2022-08-12T22:29:58.719Z,9.95
2022-08-12T22:32:49.880Z,10.02
2022-08-12T22:35:56.282Z,9.18
2022-08-12T22:38:48.055Z,9.65
2022-08-12T22:41:57.960Z,9.32
2022-08-12T22:45:03.484Z,9.55
2022-08-12T22:47:54.883Z,9.77
2022-08-12T22:50:43.867Z,10.73
2022-08-12T22:53:36.181Z,10.43
2022-08-12T22:56:30.891Z,10.30
2022-08-12T22:59:21.883Z,10.40
2022-08-12T23:02:11.281Z,9.75
2022-08-12T23:04:59.633Z,9.68
2022-08-12T23:07:52.923Z,10.57
2022-08-12T23:10:48.287Z,10.27
2022-08-12T23:13:55.533Z,11.27
2022-08-12T23:16:46.478Z,10.85
2022-08-12T23:19:38.466Z,10.73
2022-08-12T23:22:36.162Z,11.25
2022-08-12T23:25:32.789Z,9.90
2022-08-12T23:28:53.237Z,10.00
2022-08-12T23:32:03.024Z,10.80
2022-08-12T23:34:50.589Z,10.23
2022-08-12T23:37:47.810Z,10.98
2022-08-12T23:40:41.528Z,10.93
2022-08-12T23:43:38.743Z,10.63
2022-08-12T23:46:28.977Z,9.73
2022-08-12T23:49:55.551Z,10.43
2022-08-12T23:52:25.696Z,10.38
2022-08-12T23:55:29.159Z,10.07
2022-08-12T23:58:25.664Z,10.65
